Terminal Aerodrome Forecast
Issued by NWS Shreveport, LA

Home | Current Version | Previous Version | Text Only | Print | Product List | Glossary On
Versions: 1 2 3 4 5 6 7 8 9 10 11 12
000
FTUS44 KSHV 311700
TAFMLU
TAF
KMLU 311727Z 3118/0118 08004KT P6SM FEW120
      TEMPO 3118/3120 5SM -RA BR OVC050
     FM312000 09007KT P6SM VCTS OVC050CB
     FM010600 05007KT 5SM -SHRA BR OVC040
      TEMPO 0106/0110 3SM -TSRA BR BKN007 OVC025CB
     FM011400 14006KT P6SM VCTS BKN010CB=

USA.gov is the U.S. government's official web portal to all federal, state and local government web resources and services.